sensor_id;sensor_type;location;lat;lon;timestamp;temperature;humidity
5520;DHT22;2782;52.362;10.012;2023-04-24T00:00:29;19.60;76.30
5520;DHT22;2782;52.362;10.012;2023-04-24T00:01:31;19.60;76.30
5520;DHT22;2782;52.362;10.012;2023-04-24T00:02:32;19.60;76.30
5520;DHT22;2782;52.362;10.012;2023-04-24T00:03:36;19.60;76.30
5520;DHT22;2782;52.362;10.012;2023-04-24T00:04:37;19.60;76.40
5520;DHT22;2782;52.362;10.012;2023-04-24T00:05:41;19.60;76.30
5520;DHT22;2782;52.362;10.012;2023-04-24T00:06:42;19.60;76.40
5520;DHT22;2782;52.362;10.012;2023-04-24T00:07:44;19.60;76.30
5520;DHT22;2782;52.362;10.012;2023-04-24T00:08:45;19.60;76.40
5520;DHT22;2782;52.362;10.012;2023-04-24T00:09:46;19.60;76.40
5520;DHT22;2782;52.362;10.012;2023-04-24T00:10:47;19.60;76.40
5520;DHT22;2782;52.362;10.012;2023-04-24T00:11:49;19.60;76.40
5520;DHT22;2782;52.362;10.012;2023-04-24T00:12:49;19.60;76.40
5520;DHT22;2782;52.362;10.012;2023-04-24T00:13:51;19.60;76.30
5520;DHT22;2782;52.362;10.012;2023-04-24T00:14:52;19.60;76.40
5520;DHT22;2782;52.362;10.012;2023-04-24T00:15:53;19.60;76.40
5520;DHT22;2782;52.362;10.012;2023-04-24T00:16:54;19.60;76.40
5520;DHT22;2782;52.362;10.012;2023-04-24T00:17:55;19.60;76.40
5520;DHT22;2782;52.362;10.012;2023-04-24T00:18:57;19.60;76.40
5520;DHT22;2782;52.362;10.012;2023-04-24T00:20:01;19.60;76.40
5520;DHT22;2782;52.362;10.012;2023-04-24T00:21:05;19.60;76.40
5520;DHT22;2782;52.362;10.012;2023-04-24T00:22:06;19.50;76.30
5520;DHT22;2782;52.362;10.012;2023-04-24T00:23:08;19.60;76.40
5520;DHT22;2782;52.362;10.012;2023-04-24T00:24:09;19.50;76.30
5520;DHT22;2782;52.362;10.012;2023-04-24T00:25:10;19.50;76.30
5520;DHT22;2782;52.362;10.012;2023-04-24T00:26:11;19.50;76.40
5520;DHT22;2782;52.362;10.012;2023-04-24T00:27:12;19.50;76.40
5520;DHT22;2782;52.362;10.012;2023-04-24T00:28:14;19.50;76.40
5520;DHT22;2782;52.362;10.012;2023-04-24T00:29:14;19.50;76.40
5520;DHT22;2782;52.362;10.012;2023-04-24T00:30:16;19.50;76.40
5520;DHT22;2782;52.362;10.012;2023-04-24T00:31:17;19.50;76.50
5520;DHT22;2782;52.362;10.012;2023-04-24T00:32:19;19.50;76.40
5520;DHT22;2782;52.362;10.012;2023-04-24T00:33:20;19.50;76.40
5520;DHT22;2782;52.362;10.012;2023-04-24T00:34:23;19.50;76.50
5520;DHT22;2782;52.362;10.012;2023-04-24T00:35:23;19.50;76.50
5520;DHT22;2782;52.362;10.012;2023-04-24T00:36:25;19.50;76.50
5520;DHT22;2782;52.362;10.012;2023-04-24T00:37:27;19.50;76.50
5520;DHT22;2782;52.362;10.012;2023-04-24T00:38:29;19.50;76.50
5520;DHT22;2782;52.362;10.012;2023-04-24T00:39:29;19.50;76.50
5520;DHT22;2782;52.362;10.012;2023-04-24T00:40:31;19.50;76.50
5520;DHT22;2782;52.362;10.012;2023-04-24T00:41:31;19.50;76.50
5520;DHT22;2782;52.362;10.012;2023-04-24T00:42:34;19.50;77.20
5520;DHT22;2782;52.362;10.012;2023-04-24T00:43:34;19.50;76.50
5520;DHT22;2782;52.362;10.012;2023-04-24T00:44:36;19.50;76.60
5520;DHT22;2782;52.362;10.012;2023-04-24T00:45:37;19.50;76.50
5520;DHT22;2782;52.362;10.012;2023-04-24T00:46:39;19.50;76.60
5520;DHT22;2782;52.362;10.012;2023-04-24T00:47:41;19.50;76.50
5520;DHT22;2782;52.362;10.012;2023-04-24T00:48:43;19.50;76.60
5520;DHT22;2782;52.362;10.012;2023-04-24T00:49:45;19.50;76.50
5520;DHT22;2782;52.362;10.012;2023-04-24T00:50:47;19.50;76.60
5520;DHT22;2782;52.362;10.012;2023-04-24T00:51:48;19.50;76.60
5520;DHT22;2782;52.362;10.012;2023-04-24T00:52:51;19.50;76.60
5520;DHT22;2782;52.362;10.012;2023-04-24T00:53:52;19.50;76.60
5520;DHT22;2782;52.362;10.012;2023-04-24T00:54:53;19.40;76.60
5520;DHT22;2782;52.362;10.012;2023-04-24T00:55:55;19.40;76.50
5520;DHT22;2782;52.362;10.012;2023-04-24T00:56:57;19.40;76.60
5520;DHT22;2782;52.362;10.012;2023-04-24T00:57:58;19.40;76.60
5520;DHT22;2782;52.362;10.012;2023-04-24T00:59:00;19.40;76.60
5520;DHT22;2782;52.362;10.012;2023-04-24T01:00:01;19.40;76.60
5520;DHT22;2782;52.362;10.012;2023-04-24T01:01:03;19.40;76.70
5520;DHT22;2782;52.362;10.012;2023-04-24T01:02:07;19.40;76.70
5520;DHT22;2782;52.362;10.012;2023-04-24T01:03:09;19.40;76.80
5520;DHT22;2782;52.362;10.012;2023-04-24T01:04:11;19.40;76.80
5520;DHT22;2782;52.362;10.012;2023-04-24T01:05:15;19.40;76.70
5520;DHT22;2782;52.362;10.012;2023-04-24T01:06:18;19.40;76.70
5520;DHT22;2782;52.362;10.012;2023-04-24T01:07:21;19.40;76.70
5520;DHT22;2782;52.362;10.012;2023-04-24T01:08:23;19.40;76.70
5520;DHT22;2782;52.362;10.012;2023-04-24T01:09:25;19.40;76.60
5520;DHT22;2782;52.362;10.012;2023-04-24T01:10:27;19.40;76.60
5520;DHT22;2782;52.362;10.012;2023-04-24T01:11:31;19.40;76.60
5520;DHT22;2782;52.362;10.012;2023-04-24T01:12:32;19.40;76.70
5520;DHT22;2782;52.362;10.012;2023-04-24T01:13:34;19.40;76.70
5520;DHT22;2782;52.362;10.012;2023-04-24T01:14:35;19.40;76.60
5520;DHT22;2782;52.362;10.012;2023-04-24T01:15:37;19.40;76.60
5520;DHT22;2782;52.362;10.012;2023-04-24T01:16:38;19.40;76.70
5520;DHT22;2782;52.362;10.012;2023-04-24T01:17:41;19.40;76.70
5520;DHT22;2782;52.362;10.012;2023-04-24T01:18:42;19.30;76.60
5520;DHT22;2782;52.362;10.012;2023-04-24T01:19:43;19.30;76.60
5520;DHT22;2782;52.362;10.012;2023-04-24T01:20:46;19.40;76.70
5520;DHT22;2782;52.362;10.012;2023-04-24T01:21:51;19.30;76.50
5520;DHT22;2782;52.362;10.012;2023-04-24T01:22:55;19.30;76.60
5520;DHT22;2782;52.362;10.012;2023-04-24T01:23:57;19.30;76.50
5520;DHT22;2782;52.362;10.012;2023-04-24T01:24:58;19.30;76.50
5520;DHT22;2782;52.362;10.012;2023-04-24T01:26:00;19.30;76.50
5520;DHT22;2782;52.362;10.012;2023-04-24T01:27:01;19.30;76.50
5520;DHT22;2782;52.362;10.012;2023-04-24T01:28:03;19.30;76.50
5520;DHT22;2782;52.362;10.012;2023-04-24T01:29:03;19.30;76.50
5520;DHT22;2782;52.362;10.012;2023-04-24T01:30:06;19.30;76.40
5520;DHT22;2782;52.362;10.012;2023-04-24T01:31:08;19.30;76.50
5520;DHT22;2782;52.362;10.012;2023-04-24T01:32:09;19.30;76.50
5520;DHT22;2782;52.362;10.012;2023-04-24T01:33:10;19.30;76.40
5520;DHT22;2782;52.362;10.012;2023-04-24T01:34:12;19.30;76.40
5520;DHT22;2782;52.362;10.012;2023-04-24T01:35:13;19.30;76.40
5520;DHT22;2782;52.362;10.012;2023-04-24T01:36:16;19.30;76.30
5520;DHT22;2782;52.362;10.012;2023-04-24T01:37:17;19.30;76.20
5520;DHT22;2782;52.362;10.012;2023-04-24T01:38:20;19.30;76.30
5520;DHT22;2782;52.362;10.012;2023-04-24T01:39:20;19.30;76.30
5520;DHT22;2782;52.362;10.012;2023-04-24T01:40:23;19.30;76.30
5520;DHT22;2782;52.362;10.012;2023-04-24T01:41:24;19.30;76.40
5520;DHT22;2782;52.362;10.012;2023-04-24T01:42:26;19.30;76.40
5520;DHT22;2782;52.362;10.012;2023-04-24T01:43:27;19.30;76.50
5520;DHT22;2782;52.362;10.012;2023-04-24T01:44:29;19.30;76.50
5520;DHT22;2782;52.362;10.012;2023-04-24T01:45:30;19.30;76.50
5520;DHT22;2782;52.362;10.012;2023-04-24T01:46:32;19.30;76.50
5520;DHT22;2782;52.362;10.012;2023-04-24T01:47:35;19.30;76.30
5520;DHT22;2782;52.362;10.012;2023-04-24T01:48:36;19.30;76.40
5520;DHT22;2782;52.362;10.012;2023-04-24T01:49:38;19.30;76.40
5520;DHT22;2782;52.362;10.012;2023-04-24T01:50:39;19.30;76.40
5520;DHT22;2782;52.362;10.012;2023-04-24T01:51:40;19.30;76.40
5520;DHT22;2782;52.362;10.012;2023-04-24T01:52:42;19.30;76.50
5520;DHT22;2782;52.362;10.012;2023-04-24T01:53:44;19.30;76.50
5520;DHT22;2782;52.362;10.012;2023-04-24T01:54:46;19.20;76.50
5520;DHT22;2782;52.362;10.012;2023-04-24T01:55:46;19.30;76.70
5520;DHT22;2782;52.362;10.012;2023-04-24T01:56:48;19.30;76.60
5520;DHT22;2782;52.362;10.012;2023-04-24T01:57:49;19.30;76.60
5520;DHT22;2782;52.362;10.012;2023-04-24T01:58:52;19.20;76.40
5520;DHT22;2782;52.362;10.012;2023-04-24T01:59:53;19.20;76.40
5520;DHT22;2782;52.362;10.012;2023-04-24T02:00:56;19.20;76.40
5520;DHT22;2782;52.362;10.012;2023-04-24T02:01:57;19.20;76.40
5520;DHT22;2782;52.362;10.012;2023-04-24T02:02:58;19.30;76.50
5520;DHT22;2782;52.362;10.012;2023-04-24T02:03:59;19.20;76.40
5520;DHT22;2782;52.362;10.012;2023-04-24T02:05:01;19.20;76.40
5520;DHT22;2782;52.362;10.012;2023-04-24T02:06:01;19.20;76.40
5520;DHT22;2782;52.362;10.012;2023-04-24T02:07:03;19.20;76.50
5520;DHT22;2782;52.362;10.012;2023-04-24T02:08:04;19.20;76.40
5520;DHT22;2782;52.362;10.012;2023-04-24T02:09:07;19.20;76.40
5520;DHT22;2782;52.362;10.012;2023-04-24T02:10:09;19.20;76.50
5520;DHT22;2782;52.362;10.012;2023-04-24T02:11:11;19.20;76.50
5520;DHT22;2782;52.362;10.012;2023-04-24T02:12:11;19.20;76.50
5520;DHT22;2782;52.362;10.012;2023-04-24T02:13:13;19.20;77.10
5520;DHT22;2782;52.362;10.012;2023-04-24T02:14:14;19.20;76.40
5520;DHT22;2782;52.362;10.012;2023-04-24T02:15:15;19.20;76.40
5520;DHT22;2782;52.362;10.012;2023-04-24T02:16:17;19.20;76.40
5520;DHT22;2782;52.362;10.012;2023-04-24T02:17:18;19.20;76.30
5520;DHT22;2782;52.362;10.012;2023-04-24T02:18:19;19.20;76.40
5520;DHT22;2782;52.362;10.012;2023-04-24T02:19:23;19.20;76.30
5520;DHT22;2782;52.362;10.012;2023-04-24T02:20:23;19.20;76.30
5520;DHT22;2782;52.362;10.012;2023-04-24T02:21:25;19.20;76.20
5520;DHT22;2782;52.362;10.012;2023-04-24T02:22:26;19.20;76.30
5520;DHT22;2782;52.362;10.012;2023-04-24T02:23:27;19.20;76.40
5520;DHT22;2782;52.362;10.012;2023-04-24T02:24:29;19.20;76.30
5520;DHT22;2782;52.362;10.012;2023-04-24T02:25:31;19.20;76.30
5520;DHT22;2782;52.362;10.012;2023-04-24T02:26:31;19.20;76.30
5520;DHT22;2782;52.362;10.012;2023-04-24T02:27:33;19.20;76.20
5520;DHT22;2782;52.362;10.012;2023-04-24T02:28:34;19.20;76.30
5520;DHT22;2782;52.362;10.012;2023-04-24T02:29:35;19.20;76.30
5520;DHT22;2782;52.362;10.012;2023-04-24T02:30:36;19.20;76.30
5520;DHT22;2782;52.362;10.012;2023-04-24T02:31:37;19.20;76.30
5520;DHT22;2782;52.362;10.012;2023-04-24T02:32:38;19.20;76.30
5520;DHT22;2782;52.362;10.012;2023-04-24T02:33:40;19.20;76.20
5520;DHT22;2782;52.362;10.012;2023-04-24T02:34:41;19.20;76.30
5520;DHT22;2782;52.362;10.012;2023-04-24T02:35:42;19.20;76.20
5520;DHT22;2782;52.362;10.012;2023-04-24T02:36:43;19.20;76.20
5520;DHT22;2782;52.362;10.012;2023-04-24T02:37:44;19.20;76.20
5520;DHT22;2782;52.362;10.012;2023-04-24T02:38:45;19.20;76.20
5520;DHT22;2782;52.362;10.012;2023-04-24T02:39:48;19.20;76.20
5520;DHT22;2782;52.362;10.012;2023-04-24T02:40:48;19.20;76.20
5520;DHT22;2782;52.362;10.012;2023-04-24T02:41:50;19.20;76.30
5520;DHT22;2782;52.362;10.012;2023-04-24T02:42:51;19.20;76.30
5520;DHT22;2782;52.362;10.012;2023-04-24T02:43:52;19.20;76.20
5520;DHT22;2782;52.362;10.012;2023-04-24T02:44:53;19.20;76.30
5520;DHT22;2782;52.362;10.012;2023-04-24T02:45:54;19.10;76.20
5520;DHT22;2782;52.362;10.012;2023-04-24T02:46:55;19.20;76.40
5520;DHT22;2782;52.362;10.012;2023-04-24T02:47:56;19.10;76.30
5520;DHT22;2782;52.362;10.012;2023-04-24T02:48:57;19.10;76.30
5520;DHT22;2782;52.362;10.012;2023-04-24T02:49:59;19.10;76.20
5520;DHT22;2782;52.362;10.012;2023-04-24T02:50:59;19.10;76.30
5520;DHT22;2782;52.362;10.012;2023-04-24T02:52:01;19.10;76.20
5520;DHT22;2782;52.362;10.012;2023-04-24T02:53:02;19.20;76.40
5520;DHT22;2782;52.362;10.012;2023-04-24T02:54:03;19.10;76.20
5520;DHT22;2782;52.362;10.012;2023-04-24T02:55:06;19.10;76.30
5520;DHT22;2782;52.362;10.012;2023-04-24T02:56:08;19.10;76.30
5520;DHT22;2782;52.362;10.012;2023-04-24T02:57:09;19.10;76.30
5520;DHT22;2782;52.362;10.012;2023-04-24T02:58:10;19.10;76.30
5520;DHT22;2782;52.362;10.012;2023-04-24T02:59:13;19.10;76.30
5520;DHT22;2782;52.362;10.012;2023-04-24T03:00:15;19.10;76.30
5520;DHT22;2782;52.362;10.012;2023-04-24T03:01:15;19.10;76.30
5520;DHT22;2782;52.362;10.012;2023-04-24T03:02:18;19.10;76.30
5520;DHT22;2782;52.362;10.012;2023-04-24T03:03:19;19.10;76.30
5520;DHT22;2782;52.362;10.012;2023-04-24T03:04:20;19.10;76.30
5520;DHT22;2782;52.362;10.012;2023-04-24T03:05:22;19.10;76.40
5520;DHT22;2782;52.362;10.012;2023-04-24T03:06:24;19.10;76.30
5520;DHT22;2782;52.362;10.012;2023-04-24T03:07:27;19.10;76.30
5520;DHT22;2782;52.362;10.012;2023-04-24T03:08:28;19.10;76.30
5520;DHT22;2782;52.362;10.012;2023-04-24T03:09:29;19.10;76.30
5520;DHT22;2782;52.362;10.012;2023-04-24T03:10:31;19.10;76.40
5520;DHT22;2782;52.362;10.012;2023-04-24T03:11:33;19.10;76.30
5520;DHT22;2782;52.362;10.012;2023-04-24T03:12:34;19.10;76.30
5520;DHT22;2782;52.362;10.012;2023-04-24T03:13:35;19.10;76.30
5520;DHT22;2782;52.362;10.012;2023-04-24T03:14:36;19.10;76.20
5520;DHT22;2782;52.362;10.012;2023-04-24T03:15:37;19.10;76.20
5520;DHT22;2782;52.362;10.012;2023-04-24T03:16:38;19.10;76.30
5520;DHT22;2782;52.362;10.012;2023-04-24T03:17:40;19.10;76.20
5520;DHT22;2782;52.362;10.012;2023-04-24T03:18:40;19.10;76.20
5520;DHT22;2782;52.362;10.012;2023-04-24T03:19:42;19.10;76.20
5520;DHT22;2782;52.362;10.012;2023-04-24T03:20:43;19.10;76.20
5520;DHT22;2782;52.362;10.012;2023-04-24T03:21:46;19.10;76.20
5520;DHT22;2782;52.362;10.012;2023-04-24T03:22:47;19.10;76.20
5520;DHT22;2782;52.362;10.012;2023-04-24T03:23:48;19.10;76.30
5520;DHT22;2782;52.362;10.012;2023-04-24T03:24:49;19.10;76.40
5520;DHT22;2782;52.362;10.012;2023-04-24T03:25:52;19.10;76.40
5520;DHT22;2782;52.362;10.012;2023-04-24T03:26:53;19.10;76.40
5520;DHT22;2782;52.362;10.012;2023-04-24T03:27:54;19.10;76.40
5520;DHT22;2782;52.362;10.012;2023-04-24T03:28:55;19.10;76.40
5520;DHT22;2782;52.362;10.012;2023-04-24T03:29:56;19.10;76.40
5520;DHT22;2782;52.362;10.012;2023-04-24T03:30:57;19.10;76.40
5520;DHT22;2782;52.362;10.012;2023-04-24T03:31:59;19.10;76.40
5520;DHT22;2782;52.362;10.012;2023-04-24T03:33:00;19.10;76.40
5520;DHT22;2782;52.362;10.012;2023-04-24T03:34:02;19.10;76.20
5520;DHT22;2782;52.362;10.012;2023-04-24T03:35:02;19.10;76.00
5520;DHT22;2782;52.362;10.012;2023-04-24T03:36:04;19.10;75.80
5520;DHT22;2782;52.362;10.012;2023-04-24T03:37:06;19.10;76.00
5520;DHT22;2782;52.362;10.012;2023-04-24T03:38:07;19.10;76.00
5520;DHT22;2782;52.362;10.012;2023-04-24T03:39:08;19.10;76.10
5520;DHT22;2782;52.362;10.012;2023-04-24T03:40:09;19.00;76.10
5520;DHT22;2782;52.362;10.012;2023-04-24T03:41:12;19.00;76.10
5520;DHT22;2782;52.362;10.012;2023-04-24T03:42:13;19.10;76.30
5520;DHT22;2782;52.362;10.012;2023-04-24T03:43:15;19.00;76.30
5520;DHT22;2782;52.362;10.012;2023-04-24T03:44:16;19.00;76.20
5520;DHT22;2782;52.362;10.012;2023-04-24T03:45:17;19.00;76.20
5520;DHT22;2782;52.362;10.012;2023-04-24T03:46:18;19.00;76.10
5520;DHT22;2782;52.362;10.012;2023-04-24T03:47:19;19.00;76.10
5520;DHT22;2782;52.362;10.012;2023-04-24T03:48:20;19.10;76.10
5520;DHT22;2782;52.362;10.012;2023-04-24T03:49:21;19.00;76.10
5520;DHT22;2782;52.362;10.012;2023-04-24T03:50:22;19.00;76.10
5520;DHT22;2782;52.362;10.012;2023-04-24T03:51:24;19.00;76.10
5520;DHT22;2782;52.362;10.012;2023-04-24T03:52:25;19.00;76.10
5520;DHT22;2782;52.362;10.012;2023-04-24T03:53:27;19.00;76.10
5520;DHT22;2782;52.362;10.012;2023-04-24T03:54:27;19.00;76.10
5520;DHT22;2782;52.362;10.012;2023-04-24T03:55:29;19.00;76.10
5520;DHT22;2782;52.362;10.012;2023-04-24T03:56:31;19.00;76.10
5520;DHT22;2782;52.362;10.012;2023-04-24T03:57:33;19.00;76.10
5520;DHT22;2782;52.362;10.012;2023-04-24T03:58:33;19.00;76.10
5520;DHT22;2782;52.362;10.012;2023-04-24T03:59:35;19.10;76.10
5520;DHT22;2782;52.362;10.012;2023-04-24T04:00:36;19.00;75.90
5520;DHT22;2782;52.362;10.012;2023-04-24T04:01:37;19.00;75.90
5520;DHT22;2782;52.362;10.012;2023-04-24T04:02:38;19.00;75.80
5520;DHT22;2782;52.362;10.012;2023-04-24T04:03:40;19.00;75.80
5520;DHT22;2782;52.362;10.012;2023-04-24T04:04:40;19.10;76.00
5520;DHT22;2782;52.362;10.012;2023-04-24T04:05:42;19.10;76.00
5520;DHT22;2782;52.362;10.012;2023-04-24T04:06:43;19.10;76.00
5520;DHT22;2782;52.362;10.012;2023-04-24T04:07:46;19.10;76.00
5520;DHT22;2782;52.362;10.012;2023-04-24T04:08:48;19.10;76.00
5520;DHT22;2782;52.362;10.012;2023-04-24T04:09:48;19.10;76.10
5520;DHT22;2782;52.362;10.012;2023-04-24T04:10:50;19.10;76.10
5520;DHT22;2782;52.362;10.012;2023-04-24T04:11:52;19.10;76.10
5520;DHT22;2782;52.362;10.012;2023-04-24T04:12:54;19.10;76.10
5520;DHT22;2782;52.362;10.012;2023-04-24T04:13:54;19.10;76.10
5520;DHT22;2782;52.362;10.012;2023-04-24T04:14:57;19.10;76.10
5520;DHT22;2782;52.362;10.012;2023-04-24T04:15:57;19.10;76.80
5520;DHT22;2782;52.362;10.012;2023-04-24T04:16:59;19.10;76.10
5520;DHT22;2782;52.362;10.012;2023-04-24T04:18:01;19.10;76.00
5520;DHT22;2782;52.362;10.012;2023-04-24T04:19:01;19.10;76.10
5520;DHT22;2782;52.362;10.012;2023-04-24T04:20:03;19.10;76.00
5520;DHT22;2782;52.362;10.012;2023-04-24T04:21:07;19.10;76.00
5520;DHT22;2782;52.362;10.012;2023-04-24T04:22:09;19.10;76.10
5520;DHT22;2782;52.362;10.012;2023-04-24T04:23:10;19.20;76.10
5520;DHT22;2782;52.362;10.012;2023-04-24T04:24:11;19.10;76.00
5520;DHT22;2782;52.362;10.012;2023-04-24T04:25:13;19.10;76.00
5520;DHT22;2782;52.362;10.012;2023-04-24T04:26:14;19.20;76.10
5520;DHT22;2782;52.362;10.012;2023-04-24T04:27:17;19.10;76.00
5520;DHT22;2782;52.362;10.012;2023-04-24T04:28:18;19.20;76.10
5520;DHT22;2782;52.362;10.012;2023-04-24T04:29:21;19.20;76.10
5520;DHT22;2782;52.362;10.012;2023-04-24T04:30:23;19.20;76.00
5520;DHT22;2782;52.362;10.012;2023-04-24T04:31:24;19.20;76.10
5520;DHT22;2782;52.362;10.012;2023-04-24T04:32:25;19.20;76.00
5520;DHT22;2782;52.362;10.012;2023-04-24T04:33:27;19.20;76.00
5520;DHT22;2782;52.362;10.012;2023-04-24T04:34:28;19.20;75.10
5520;DHT22;2782;52.362;10.012;2023-04-24T04:35:30;19.20;74.30
5520;DHT22;2782;52.362;10.012;2023-04-24T04:36:30;19.20;75.10
5520;DHT22;2782;52.362;10.012;2023-04-24T04:37:33;19.20;74.90
5520;DHT22;2782;52.362;10.012;2023-04-24T04:38:34;19.20;74.70
5520;DHT22;2782;52.362;10.012;2023-04-24T04:39:35;19.20;75.10
5520;DHT22;2782;52.362;10.012;2023-04-24T04:40:36;19.20;75.30
5520;DHT22;2782;52.362;10.012;2023-04-24T04:41:38;19.20;75.50
5520;DHT22;2782;52.362;10.012;2023-04-24T04:42:42;19.20;75.60
5520;DHT22;2782;52.362;10.012;2023-04-24T04:43:46;19.20;75.60
5520;DHT22;2782;52.362;10.012;2023-04-24T04:44:47;19.20;75.70
5520;DHT22;2782;52.362;10.012;2023-04-24T04:45:51;19.20;75.60
5520;DHT22;2782;52.362;10.012;2023-04-24T04:46:51;19.20;75.70
5520;DHT22;2782;52.362;10.012;2023-04-24T04:47:56;19.20;75.70
5520;DHT22;2782;52.362;10.012;2023-04-24T04:48:58;19.20;75.60
5520;DHT22;2782;52.362;10.012;2023-04-24T04:49:59;19.20;75.70
5520;DHT22;2782;52.362;10.012;2023-04-24T04:51:01;19.30;74.50
5520;DHT22;2782;52.362;10.012;2023-04-24T04:52:02;19.20;73.70
5520;DHT22;2782;52.362;10.012;2023-04-24T04:53:03;19.20;73.40
5520;DHT22;2782;52.362;10.012;2023-04-24T04:54:04;19.20;73.40
5520;DHT22;2782;52.362;10.012;2023-04-24T04:55:06;19.20;74.10
5520;DHT22;2782;52.362;10.012;2023-04-24T04:56:08;19.20;74.60
5520;DHT22;2782;52.362;10.012;2023-04-24T04:57:10;19.20;74.80
5520;DHT22;2782;52.362;10.012;2023-04-24T04:58:12;19.20;75.10
5520;DHT22;2782;52.362;10.012;2023-04-24T04:59:13;19.20;74.60
5520;DHT22;2782;52.362;10.012;2023-04-24T05:00:14;19.20;75.70
5520;DHT22;2782;52.362;10.012;2023-04-24T05:01:16;19.20;75.70
5520;DHT22;2782;52.362;10.012;2023-04-24T05:02:17;19.20;74.30
5520;DHT22;2782;52.362;10.012;2023-04-24T05:03:19;19.20;73.80
5520;DHT22;2782;52.362;10.012;2023-04-24T05:04:20;19.20;74.90
5520;DHT22;2782;52.362;10.012;2023-04-24T05:05:21;19.20;76.20
5520;DHT22;2782;52.362;10.012;2023-04-24T05:06:22;19.20;76.40
5520;DHT22;2782;52.362;10.012;2023-04-24T05:07:24;19.20;76.80
5520;DHT22;2782;52.362;10.012;2023-04-24T05:08:25;19.20;77.00
5520;DHT22;2782;52.362;10.012;2023-04-24T05:09:27;19.20;77.30
5520;DHT22;2782;52.362;10.012;2023-04-24T05:10:29;19.20;77.40
5520;DHT22;2782;52.362;10.012;2023-04-24T05:11:31;19.20;77.90
5520;DHT22;2782;52.362;10.012;2023-04-24T05:12:32;19.20;78.40
5520;DHT22;2782;52.362;10.012;2023-04-24T05:13:34;19.20;78.90
5520;DHT22;2782;52.362;10.012;2023-04-24T05:14:35;19.30;78.70
5520;DHT22;2782;52.362;10.012;2023-04-24T05:15:37;19.30;77.80
5520;DHT22;2782;52.362;10.012;2023-04-24T05:16:38;19.30;77.70
5520;DHT22;2782;52.362;10.012;2023-04-24T05:17:40;19.30;78.20
5520;DHT22;2782;52.362;10.012;2023-04-24T05:18:41;19.30;77.10
5520;DHT22;2782;52.362;10.012;2023-04-24T05:19:42;19.30;75.00
5520;DHT22;2782;52.362;10.012;2023-04-24T05:20:44;19.30;74.50
5520;DHT22;2782;52.362;10.012;2023-04-24T05:21:45;19.20;73.80
5520;DHT22;2782;52.362;10.012;2023-04-24T05:22:46;19.20;74.90
5520;DHT22;2782;52.362;10.012;2023-04-24T05:23:47;19.20;75.10
5520;DHT22;2782;52.362;10.012;2023-04-24T05:24:48;19.20;75.70
5520;DHT22;2782;52.362;10.012;2023-04-24T05:25:50;19.20;74.50
5520;DHT22;2782;52.362;10.012;2023-04-24T05:26:51;19.20;73.80
5520;DHT22;2782;52.362;10.012;2023-04-24T05:27:53;19.20;73.50
5520;DHT22;2782;52.362;10.012;2023-04-24T05:28:55;19.20;73.80
5520;DHT22;2782;52.362;10.012;2023-04-24T05:29:56;19.20;73.70
5520;DHT22;2782;52.362;10.012;2023-04-24T05:30:57;19.10;73.60
5520;DHT22;2782;52.362;10.012;2023-04-24T05:32:00;19.10;74.10
5520;DHT22;2782;52.362;10.012;2023-04-24T05:33:01;19.10;73.30
5520;DHT22;2782;52.362;10.012;2023-04-24T05:34:13;19.10;73.40
5520;DHT22;2782;52.362;10.012;2023-04-24T05:35:17;19.10;74.20
5520;DHT22;2782;52.362;10.012;2023-04-24T05:36:19;19.10;74.00
5520;DHT22;2782;52.362;10.012;2023-04-24T05:37:20;19.10;74.20
5520;DHT22;2782;52.362;10.012;2023-04-24T05:38:21;19.10;75.00
5520;DHT22;2782;52.362;10.012;2023-04-24T05:39:22;19.10;75.30
5520;DHT22;2782;52.362;10.012;2023-04-24T05:40:25;19.10;75.20
5520;DHT22;2782;52.362;10.012;2023-04-24T05:41:26;19.20;75.40
5520;DHT22;2782;52.362;10.012;2023-04-24T05:42:27;19.20;75.60
5520;DHT22;2782;52.362;10.012;2023-04-24T05:43:29;19.10;75.70
5520;DHT22;2782;52.362;10.012;2023-04-24T05:44:31;19.10;75.70
5520;DHT22;2782;52.362;10.012;2023-04-24T05:45:33;19.20;75.90
5520;DHT22;2782;52.362;10.012;2023-04-24T05:46:36;19.20;75.90
5520;DHT22;2782;52.362;10.012;2023-04-24T05:47:37;19.20;76.70
5520;DHT22;2782;52.362;10.012;2023-04-24T05:48:38;19.20;76.20
5520;DHT22;2782;52.362;10.012;2023-04-24T05:49:40;19.20;76.30
5520;DHT22;2782;52.362;10.012;2023-04-24T05:50:40;19.20;76.30
5520;DHT22;2782;52.362;10.012;2023-04-24T05:51:42;19.20;76.30
5520;DHT22;2782;52.362;10.012;2023-04-24T05:52:42;19.20;76.40
5520;DHT22;2782;52.362;10.012;2023-04-24T05:53:44;19.20;76.30
5520;DHT22;2782;52.362;10.012;2023-04-24T05:54:45;19.20;76.40
5520;DHT22;2782;52.362;10.012;2023-04-24T05:55:47;19.20;76.40
5520;DHT22;2782;52.362;10.012;2023-04-24T05:56:49;19.20;76.40
5520;DHT22;2782;52.362;10.012;2023-04-24T05:57:50;19.20;76.30
5520;DHT22;2782;52.362;10.012;2023-04-24T05:58:51;19.20;76.40
5520;DHT22;2782;52.362;10.012;2023-04-24T05:59:54;19.20;76.40
5520;DHT22;2782;52.362;10.012;2023-04-24T06:00:54;19.20;76.40
5520;DHT22;2782;52.362;10.012;2023-04-24T06:01:57;19.20;76.40
5520;DHT22;2782;52.362;10.012;2023-04-24T06:02:59;19.30;76.50
5520;DHT22;2782;52.362;10.012;2023-04-24T06:04:00;19.20;76.40
5520;DHT22;2782;52.362;10.012;2023-04-24T06:05:01;19.30;76.50
5520;DHT22;2782;52.362;10.012;2023-04-24T06:06:03;19.30;76.50
5520;DHT22;2782;52.362;10.012;2023-04-24T06:07:03;19.30;76.50
5520;DHT22;2782;52.362;10.012;2023-04-24T06:08:05;19.30;76.50
5520;DHT22;2782;52.362;10.012;2023-04-24T06:09:06;19.30;76.50
5520;DHT22;2782;52.362;10.012;2023-04-24T06:10:09;19.30;76.50
5520;DHT22;2782;52.362;10.012;2023-04-24T06:11:10;19.30;76.50
5520;DHT22;2782;52.362;10.012;2023-04-24T06:12:11;19.30;76.30
5520;DHT22;2782;52.362;10.012;2023-04-24T06:13:12;19.30;76.40
5520;DHT22;2782;52.362;10.012;2023-04-24T06:14:14;19.30;76.30
5520;DHT22;2782;52.362;10.012;2023-04-24T06:15:16;19.30;76.40
5520;DHT22;2782;52.362;10.012;2023-04-24T06:16:18;19.30;76.30
5520;DHT22;2782;52.362;10.012;2023-04-24T06:17:18;19.30;76.30
5520;DHT22;2782;52.362;10.012;2023-04-24T06:18:20;19.30;76.40
5520;DHT22;2782;52.362;10.012;2023-04-24T06:19:21;19.30;76.40
5520;DHT22;2782;52.362;10.012;2023-04-24T06:20:22;19.30;76.30
5520;DHT22;2782;52.362;10.012;2023-04-24T06:21:23;19.30;76.20
5520;DHT22;2782;52.362;10.012;2023-04-24T06:22:25;19.30;76.20
5520;DHT22;2782;52.362;10.012;2023-04-24T06:23:27;19.30;76.20
5520;DHT22;2782;52.362;10.012;2023-04-24T06:24:28;19.30;76.30
5520;DHT22;2782;52.362;10.012;2023-04-24T06:25:30;19.30;76.30
5520;DHT22;2782;52.362;10.012;2023-04-24T06:26:30;19.30;76.30
5520;DHT22;2782;52.362;10.012;2023-04-24T06:27:32;19.30;76.30
5520;DHT22;2782;52.362;10.012;2023-04-24T06:28:33;19.20;76.20
5520;DHT22;2782;52.362;10.012;2023-04-24T06:29:36;19.30;76.40
5520;DHT22;2782;52.362;10.012;2023-04-24T06:30:38;19.20;76.30
5520;DHT22;2782;52.362;10.012;2023-04-24T06:31:40;19.30;76.40
5520;DHT22;2782;52.362;10.012;2023-04-24T06:32:41;19.20;76.30
5520;DHT22;2782;52.362;10.012;2023-04-24T06:33:42;19.20;76.30
5520;DHT22;2782;52.362;10.012;2023-04-24T06:34:43;19.20;76.40